Socorro, NM (87801)

11:40 PM MDT on April 27, 2015 (GMT -0600)
Bursum Place | | Change Station
CLOSE
Current Station
Personal Weather Station
Location: Socorro, NM
Elevation: 4660 ft
Nearby Weather Stations

Elev 4660 ft 34.07 °N, 106.90 °W | Updated 28 seconds ago

Overcast
Overcast
51.0 °F
Feels Like 51.0 °F
N
0.0
Wind Variable Wind from ENE
Gusts 0.0 mph

Today
High -- | Low -- °F
--% Chance of Precip.
Yesterday
High -- | Low -- °F
Precip. -- in
6:22 AM 7:48 PM
Waxing Gibbous, 71% visible
Pressure 30.26 in
Visibility 10.0 miles
Clouds Overcast 6000 ft
Dew Point 35 °F
Humidity 54%
Rainfall 0.14 in
Snow Depth Not available.
UV 0 out of 12
Pollen 7.30 out of 12
Air Quality Not available.
Flu Activity Local Activity
METAR KONM 280535Z AUTO 11003KT 10SM OVC060 09/01 A3026 RMK AO2 T00920013

More Conditions Fewer Conditions

Pressure 30.26 in
Visibility 10.0 miles
Clouds Overcast 6000 ft
Dew Point 35 °F
Humidity 54%
Rainfall 0.14 in
Snow Depth Not available.
UV 0 out of 12
Pollen 7.30 out of 12
Air Quality Not available.
Flu Activity Local Activity
METAR KONM 280535Z AUTO 11003KT 10SM OVC060 09/01 A3026 RMK AO2 T00920013

More Conditions Fewer Conditions

Nowcast | as of 10:06 PM MDT on April 27, 2015

Isolated showers and a thunderstorm or two will continue late this evening over western and central New Mexico. Movement will be to the south around 15 mph and produce modest rainfall amounts under one tenth of an inch. Areas that may be impacted through 12 am MDT include Ojo Encino...Torreon Navajo mission...San Ysidro...the Zia Pueblo...Rio Rancho...portions of the Albuquerque Metro area...and Belen to Socorro.

×

10-Day Weather Forecast

Almanac

Astronomy

Apr. 27, 2015 Rise Set
Actual Time
Civil Twilight
Nautical Twilight
Astronomical Twilight
Moon
Length of Visible Light
Length of Day
Tomorrow will be .
, % of the Moon is Illuminated

Today's Extremes

State Highs State Lows

Community

WunderPhotos

Upload Photos

1,817,586 photos uploaded!

WunderBlogs® & News

Nearby

Air Quality

  Air Quality AQ Index Pollutant
Not available.

Snow Depth

Station Depth Elevation

Earthquake Activity

City Distance Mag. Time & Date
Minimum magnitude displayed is 2.5.

Coastal Water Temperatures

Place Temperature

Stations

Nearby Weather Stations

Station Location Temp. Windchill Dew Point Humidity Wind Precip. Elev Updated Type